Time;durP1;ratioP1;P1;durP2;ratioP2;P2;SDS_P1;SDS_P2;PMS_P1;PMS_P2;Temp;Humidity;BMP_temperature;BMP_pressure;BME280_temperature;BME280_humidity;BME280_pressure;Samples;Min_cycle;Max_cycle;Signal;HPM_P1;HPM_P2
2021/08/31 00:04:15;;;;;;;6.35;4.80;;;19.60;69.70;;;;;;20908263;28;20021;-63
2021/08/31 00:14:16;;;;;;;6.57;5.13;;;19.60;69.80;;;;;;20887478;28;20036;-63
2021/08/31 00:24:16;;;;;;;7.00;6.22;;;19.60;69.80;;;;;;20905816;28;20167;-63
2021/08/31 00:34:17;;;;;;;6.80;5.40;;;19.60;69.70;;;;;;20903938;28;20115;-62
2021/08/31 00:44:22;;;;;;;7.95;6.10;;;19.60;69.70;;;;;;20903811;28;20039;-62
2021/08/31 00:54:23;;;;;;;5.75;4.63;;;19.50;69.40;;;;;;20903362;28;20044;-63
2021/08/31 01:04:28;;;;;;;6.38;5.00;;;19.60;69.70;;;;;;20902442;28;20029;-63
2021/08/31 01:14:30;;;;;;;6.45;5.10;;;19.60;69.60;;;;;;20901844;28;20420;-63
2021/08/31 01:24:30;;;;;;;6.93;6.25;;;19.50;69.70;;;;;;20901177;28;20423;-63
2021/08/31 01:34:31;;;;;;;10.95;6.53;;;19.50;69.50;;;;;;20901086;28;20059;-63
2021/08/31 01:44:32;;;;;;;5.82;5.20;;;19.50;69.60;;;;;;20911727;28;20064;-63
2021/08/31 01:54:33;;;;;;;7.07;5.97;;;19.50;69.70;;;;;;20917489;28;20029;-62
2021/08/31 02:04:33;;;;;;;7.30;5.57;;;19.50;69.60;;;;;;20916644;28;20155;-62
2021/08/31 02:14:34;;;;;;;7.45;5.55;;;19.50;69.70;;;;;;20915357;28;20505;-63
2021/08/31 02:24:35;;;;;;;7.37;5.47;;;19.50;69.70;;;;;;20914917;28;20091;-63
2021/08/31 02:34:35;;;;;;;8.40;5.70;;;19.50;69.70;;;;;;20913765;28;20541;-63
2021/08/31 02:44:36;;;;;;;7.28;5.75;;;19.50;69.80;;;;;;20913677;28;20384;-63
2021/08/31 02:54:36;;;;;;;7.38;6.18;;;19.40;69.90;;;;;;20912676;28;20032;-63
2021/08/31 03:04:42;;;;;;;7.40;6.20;;;19.40;69.90;;;;;;20912639;28;20041;-63
2021/08/31 03:14:43;;;;;;;7.47;6.03;;;19.50;69.80;;;;;;20911286;28;20482;-63
2021/08/31 03:24:44;;;;;;;7.82;6.00;;;19.50;69.80;;;;;;20910240;28;20103;-63
2021/08/31 03:34:44;;;;;;;8.63;6.40;;;19.40;69.90;;;;;;20910224;28;20028;-63
2021/08/31 03:44:45;;;;;;;7.38;5.68;;;19.40;69.80;;;;;;20908771;28;20056;-62
2021/08/31 03:54:45;;;;;;;6.97;6.18;;;19.40;69.70;;;;;;20907868;28;20090;-63
2021/08/31 04:04:46;;;;;;;8.02;5.38;;;19.50;69.80;;;;;;20906078;28;20395;-63
2021/08/31 04:14:46;;;;;;;7.65;6.70;;;19.40;69.70;;;;;;20906243;28;20028;-63
2021/08/31 04:24:47;;;;;;;7.37;6.67;;;19.40;69.80;;;;;;20905401;28;20392;-63
2021/08/31 04:34:51;;;;;;;8.23;6.82;;;19.40;70.00;;;;;;20904698;28;21047;-63
2021/08/31 04:44:52;;;;;;;14.68;7.47;;;19.30;69.80;;;;;;20893552;28;20040;-63
2021/08/31 04:54:53;;;;;;;7.75;6.72;;;19.40;69.70;;;;;;20899827;28;20025;-62
2021/08/31 05:04:55;;;;;;;8.27;6.40;;;19.30;69.60;;;;;;20805374;28;91159;-63
2021/08/31 05:14:56;;;;;;;7.68;6.45;;;19.50;69.50;;;;;;20898654;28;20068;-64
2021/08/31 05:24:58;;;;;;;9.63;6.33;;;19.60;69.40;;;;;;20870845;28;20037;-64
2021/08/31 05:35:00;;;;;;;21.77;8.43;;;19.70;69.30;;;;;;20884361;28;20507;-63
2021/08/31 05:45:02;;;;;;;15.63;7.38;;;19.70;68.70;;;;;;20853526;28;20035;-61
2021/08/31 05:55:03;;;;;;;17.42;6.93;;;20.10;68.10;;;;;;20875003;28;20124;-63
2021/08/31 06:05:04;;;;;;;14.23;6.70;;;20.40;67.70;;;;;;20883409;28;20063;-64
2021/08/31 06:15:05;;;;;;;14.48;6.93;;;20.80;67.20;;;;;;20898355;28;20025;-62
2021/08/31 06:25:06;;;;;;;17.75;8.27;;;20.80;67.20;;;;;;20898491;28;20037;-64
2021/08/31 06:35:07;;;;;;;16.73;7.25;;;20.70;67.30;;;;;;20914185;28;20071;-63
2021/08/31 06:45:08;;;;;;;14.38;8.05;;;20.70;67.30;;;;;;20913249;28;20471;-63
2021/08/31 06:55:10;;;;;;;10.88;7.20;;;20.70;67.40;;;;;;20911708;28;20071;-63
2021/08/31 07:05:11;;;;;;;10.45;7.05;;;20.60;67.30;;;;;;20910948;28;20396;-63
2021/08/31 07:15:11;;;;;;;10.90;7.40;;;20.70;67.40;;;;;;20908686;28;20028;-63
2021/08/31 07:25:12;;;;;;;10.25;6.13;;;20.70;67.40;;;;;;20908692;28;20044;-63
2021/08/31 07:35:13;;;;;;;15.25;6.72;;;20.70;67.10;;;;;;20881518;28;20029;-63
2021/08/31 07:45:14;;;;;;;10.80;5.40;;;20.80;66.80;;;;;;20908175;28;20032;-64
2021/08/31 07:55:16;;;;;;;8.80;6.05;;;20.80;66.70;;;;;;20905205;28;20033;-64
2021/08/31 08:05:16;;;;;;;9.88;6.05;;;20.90;66.60;;;;;;20905553;28;20558;-63
2021/08/31 08:15:20;;;;;;;9.27;6.05;;;20.80;66.60;;;;;;20905344;28;20033;-63
2021/08/31 08:25:20;;;;;;;10.02;5.43;;;20.80;66.60;;;;;;20905255;28;20119;-63
2021/08/31 08:35:21;;;;;;;11.73;6.07;;;20.80;66.50;;;;;;20905196;28;20072;-63
2021/08/31 08:45:22;;;;;;;13.43;5.97;;;20.80;66.60;;;;;;20905070;28;20082;-63
2021/08/31 08:55:25;;;;;;;8.73;6.20;;;20.80;66.60;;;;;;20902693;28;20484;-63
2021/08/31 09:05:31;;;;;;;8.60;5.90;;;20.80;66.60;;;;;;20901148;28;20467;-62
2021/08/31 09:15:34;;;;;;;9.25;5.25;;;20.80;66.70;;;;;;20901359;28;20534;-63
2021/08/31 09:25:36;;;;;;;19.08;6.22;;;20.80;67.00;;;;;;20901096;28;20040;-63
2021/08/31 09:35:45;;;;;;;13.35;6.72;;;20.80;67.20;;;;;;20898154;28;20112;-63
2021/08/31 09:45:48;;;;;;;12.57;5.57;;;20.80;66.90;;;;;;20898075;28;20053;-63
2021/08/31 09:56:10;;;;;;;12.27;5.97;;;20.70;66.80;;;;;;20897617;28;20024;-63
2021/08/31 10:06:12;;;;;;;9.23;4.68;;;20.70;66.70;;;;;;20910138;28;20076;-63
2021/08/31 10:16:12;;;;;;;25.95;5.10;;;20.80;66.80;;;;;;20914243;28;20119;-63
2021/08/31 10:26:22;;;;;;;6.40;4.28;;;20.80;66.70;;;;;;20912795;28;20056;-64
2021/08/31 10:36:37;;;;;;;7.30;4.55;;;20.80;66.70;;;;;;20912447;28;20033;-63
2021/08/31 10:47:08;;;;;;;9.65;5.22;;;20.80;66.90;;;;;;20912971;28;20029;-62
2021/08/31 10:57:36;;;;;;;8.43;5.40;;;20.80;67.00;;;;;;20886462;28;20533;-63
2021/08/31 11:07:37;;;;;;;11.40;5.97;;;20.80;66.90;;;;;;20911266;28;20024;-64
2021/08/31 11:17:40;;;;;;;5.13;4.23;;;20.80;67.20;;;;;;20901287;28;20531;-64
2021/08/31 11:28:00;;;;;;;5.57;3.92;;;20.80;67.30;;;;;;20897399;28;20063;-64
2021/08/31 11:38:00;;;;;;;6.47;4.32;;;20.80;67.30;;;;;;20909480;28;20036;-63
2021/08/31 11:48:02;;;;;;;6.80;4.85;;;20.80;67.30;;;;;;20907849;28;20060;-63
2021/08/31 11:58:03;;;;;;;6.07;4.50;;;20.80;67.20;;;;;;20905129;28;20036;-64
2021/08/31 12:08:04;;;;;;;6.45;4.35;;;20.70;67.90;;;;;;20903812;28;20049;-61
2021/08/31 12:18:07;;;;;;;5.37;4.57;;;20.70;67.60;;;;;;20906211;28;20028;-63
2021/08/31 12:28:08;;;;;;;6.03;4.28;;;20.60;67.60;;;;;;20904355;28;20471;-63
2021/08/31 12:38:25;;;;;;;6.65;4.10;;;20.60;67.70;;;;;;20904446;28;20028;-62
2021/08/31 12:48:35;;;;;;;8.55;4.65;;;20.50;67.80;;;;;;20903432;28;20028;-62
2021/08/31 12:58:43;;;;;;;18.38;5.28;;;20.60;67.60;;;;;;20901315;28;20024;-63
2021/08/31 13:08:43;;;;;;;16.52;5.90;;;20.70;67.60;;;;;;20901928;28;20029;-64
2021/08/31 13:18:44;;;;;;;18.45;5.72;;;20.60;67.60;;;;;;20899868;28;20549;-63
2021/08/31 13:28:44;;;;;;;20.10;6.70;;;20.60;67.80;;;;;;20900452;28;20530;-60
2021/08/31 13:38:45;;;;;;;16.58;6.60;;;20.70;67.90;;;;;;20901179;28;20044;-59
2021/08/31 13:48:46;;;;;;;23.83;6.15;;;20.70;68.00;;;;;;20901245;28;20044;-62
2021/08/31 13:58:46;;;;;;;15.98;5.90;;;20.60;68.00;;;;;;20899032;28;20036;-63
2021/08/31 14:08:47;;;;;;;15.90;5.28;;;20.60;68.10;;;;;;20895456;28;20035;-62
2021/08/31 14:18:47;;;;;;;12.20;5.32;;;20.50;68.10;;;;;;20903272;28;20067;-63
2021/08/31 14:28:48;;;;;;;11.95;4.38;;;20.50;68.10;;;;;;20899276;28;20112;-62
2021/08/31 14:38:49;;;;;;;17.92;5.05;;;20.50;68.10;;;;;;20899953;28;20475;-62
2021/08/31 14:48:49;;;;;;;10.60;3.93;;;20.50;68.10;;;;;;20902415;28;20034;-62
2021/08/31 14:58:50;;;;;;;13.15;5.35;;;20.40;68.10;;;;;;20911738;28;20048;-62
2021/08/31 15:08:50;;;;;;;11.63;5.22;;;20.50;68.00;;;;;;20911933;28;20540;-62
2021/08/31 15:18:54;;;;;;;17.77;5.35;;;20.50;68.00;;;;;;20910478;28;20029;-63
2021/08/31 15:28:58;;;;;;;13.23;6.30;;;20.50;68.20;;;;;;20909311;28;20036;-63
2021/08/31 15:39:00;;;;;;;9.55;5.50;;;20.40;68.20;;;;;;20909078;28;20395;-62
2021/08/31 15:49:01;;;;;;;12.20;4.95;;;20.40;68.20;;;;;;20908020;28;20413;-63
2021/08/31 15:59:02;;;;;;;14.02;6.28;;;20.40;68.20;;;;;;20907286;28;20035;-63
2021/08/31 16:09:03;;;;;;;13.90;5.05;;;20.40;68.20;;;;;;20906866;28;20048;-62
2021/08/31 16:19:03;;;;;;;12.87;5.50;;;20.40;68.40;;;;;;20905250;28;20040;-63
2021/08/31 16:29:04;;;;;;;13.80;5.60;;;20.40;69.10;;;;;;20905465;28;20463;-62
2021/08/31 16:39:04;;;;;;;19.85;5.20;;;20.50;69.10;;;;;;20902880;28;20037;-62
2021/08/31 16:49:05;;;;;;;11.43;5.22;;;20.60;68.80;;;;;;20903678;28;20025;-61
2021/08/31 16:59:05;;;;;;;13.18;4.50;;;20.60;68.30;;;;;;20902564;28;20045;-60
2021/08/31 17:09:06;;;;;;;19.07;6.63;;;20.70;68.30;;;;;;20901767;28;20048;-62
2021/08/31 17:19:07;;;;;;;13.18;5.18;;;20.70;68.10;;;;;;20900516;28;20479;-62
2021/08/31 17:29:07;;;;;;;14.50;5.25;;;20.80;68.50;;;;;;20902098;28;20067;-60
2021/08/31 17:39:08;;;;;;;11.67;5.33;;;20.80;68.00;;;;;;20898596;28;20037;-62
2021/08/31 17:49:09;;;;;;;9.65;4.50;;;20.80;68.00;;;;;;20884698;28;20435;-61
2021/08/31 17:59:09;;;;;;;12.27;4.63;;;20.80;68.10;;;;;;20866034;28;20064;-60
2021/08/31 18:09:10;;;;;;;11.35;5.25;;;20.70;63.30;;;;;;20875886;28;20025;-60
2021/08/31 18:19:10;;;;;;;10.23;5.13;;;20.50;63.00;;;;;;20879358;28;20045;-60
2021/08/31 18:29:11;;;;;;;7.43;4.53;;;20.00;64.70;;;;;;20860077;28;20049;-61
2021/08/31 18:39:11;;;;;;;8.52;4.35;;;20.00;65.70;;;;;;20908710;28;20021;-62
2021/08/31 18:49:12;;;;;;;22.70;5.43;;;20.20;65.60;;;;;;20874470;28;20108;-62
2021/08/31 18:59:13;;;;;;;14.68;4.97;;;20.30;66.00;;;;;;20840875;28;20084;-62
2021/08/31 19:09:14;;;;;;;16.58;5.25;;;20.20;66.60;;;;;;20911526;28;20399;-62
2021/08/31 19:19:14;;;;;;;9.55;4.63;;;20.20;67.10;;;;;;20911857;28;20442;-62
2021/08/31 19:29:15;;;;;;;8.95;4.85;;;20.20;67.20;;;;;;20910927;28;20103;-62
2021/08/31 19:39:16;;;;;;;8.27;4.60;;;20.20;67.40;;;;;;20909804;28;20094;-62
2021/08/31 19:49:17;;;;;;;9.88;4.00;;;20.20;67.50;;;;;;20909141;28;20029;-62
2021/08/31 19:59:17;;;;;;;7.17;4.53;;;20.20;67.60;;;;;;20907338;28;20403;-62
2021/08/31 20:09:18;;;;;;;10.30;5.13;;;20.20;67.80;;;;;;20907650;28;20035;-62
2021/08/31 20:19:18;;;;;;;7.18;3.83;;;20.10;67.90;;;;;;20904206;28;20079;-62
2021/08/31 20:29:22;;;;;;;9.02;4.50;;;20.20;68.20;;;;;;20903736;28;20037;-63
2021/08/31 20:39:22;;;;;;;9.95;4.03;;;20.10;68.60;;;;;;20906313;28;20036;-62
2021/08/31 20:49:23;;;;;;;5.40;3.80;;;20.10;68.90;;;;;;20903344;28;20029;-62
2021/08/31 20:59:23;;;;;;;7.43;4.38;;;20.10;68.90;;;;;;20904015;28;20032;-62
2021/08/31 21:09:24;;;;;;;6.30;4.15;;;20.10;69.00;;;;;;20903735;28;20188;-63
2021/08/31 21:19:25;;;;;;;5.67;3.37;;;20.10;69.00;;;;;;20902289;28;20036;-62
2021/08/31 21:29:25;;;;;;;6.22;4.28;;;20.10;69.00;;;;;;20902890;28;20048;-62
2021/08/31 21:39:26;;;;;;;9.10;4.40;;;20.10;69.00;;;;;;20902011;28;20036;-62
2021/08/31 21:49:26;;;;;;;6.32;3.95;;;20.10;69.00;;;;;;20901696;28;20087;-63
2021/08/31 21:59:27;;;;;;;6.63;3.93;;;20.10;69.00;;;;;;20909023;28;20037;-62
2021/08/31 22:09:28;;;;;;;10.07;4.53;;;20.10;69.00;;;;;;20908319;28;20470;-63
2021/08/31 22:19:28;;;;;;;6.10;3.83;;;20.10;69.10;;;;;;20913745;28;20504;-62
2021/08/31 22:29:29;;;;;;;8.35;3.88;;;20.00;69.10;;;;;;20898812;28;20033;-63
2021/08/31 22:31:19;;;;;;;9.80;3.97;;;20.00;69.40;;;;;;2036706;27;20621;-62
2021/08/31 22:32:20;;;;;;;11.20;3.72;;;19.90;69.20;;;;;;2089685;27;20024;-62
2021/08/31 22:33:23;;;;;;;10.60;4.65;;;19.90;69.10;;;;;;2088241;28;20022;-61
2021/08/31 22:34:24;;;;;;;8.35;5.50;;;19.80;69.30;;;;;;2087637;28;20025;-62
2021/08/31 22:35:24;;;;;;;12.73;5.30;;;19.80;69.30;;;;;;2087624;28;20017;-61
2021/08/31 22:36:25;;;;;;;9.23;4.50;;;19.80;69.30;;;;;;2087664;28;20506;-62
2021/08/31 22:37:25;;;;;;;15.43;5.72;;;19.80;69.90;;;;;;2087595;28;20480;-62
2021/08/31 22:38:26;;;;;;;9.52;4.72;;;19.80;69.50;;;;;;2087649;28;20033;-62
2021/08/31 22:39:27;;;;;;;9.77;4.22;;;19.80;69.50;;;;;;2087716;28;20025;-62
2021/08/31 22:40:27;;;;;;;11.20;5.07;;;19.80;69.60;;;;;;2087788;28;20415;-62
2021/08/31 22:41:28;;;;;;;24.83;6.07;;;19.80;69.60;;;;;;2087096;28;20017;-62
2021/08/31 22:42:28;;;;;;;9.65;4.95;;;19.70;69.50;;;;;;2086877;28;20583;-62
2021/08/31 22:43:29;;;;;;;14.15;5.30;;;19.70;69.50;;;;;;2087828;28;20017;-62
2021/08/31 22:44:29;;;;;;;11.13;5.25;;;19.70;69.50;;;;;;2087809;28;20052;-62
2021/08/31 22:45:30;;;;;;;11.73;4.47;;;19.70;69.40;;;;;;2087966;28;20383;-62
2021/08/31 22:46:30;;;;;;;13.30;4.43;;;19.70;69.50;;;;;;2061620;28;20040;-62
2021/08/31 22:57:06;;;;;;;7.78;4.20;;;19.70;69.50;;;;;;21225756;27;20631;-63
2021/08/31 23:07:07;;;;;;;12.63;4.95;;;19.70;69.60;;;;;;21224625;27;20031;-63
2021/08/31 23:17:07;;;;;;;10.98;4.70;;;19.60;69.40;;;;;;21224774;27;20020;-63
2021/08/31 23:27:08;;;;;;;13.07;4.57;;;19.50;69.30;;;;;;21224677;27;20026;-62
2021/08/31 23:37:09;;;;;;;8.15;4.20;;;19.50;69.10;;;;;;21222549;27;20020;-62
2021/08/31 23:47:09;;;;;;;12.40;5.87;;;19.50;69.10;;;;;;21221970;27;20007;-62
2021/08/31 23:57:11;;;;;;;11.67;4.83;;;19.40;68.90;;;;;;21205231;27;21034;-62
